createdAt,value
2017-09-21T00:01:28.862Z,9.40
2017-09-21T00:03:56.575Z,9.40
2017-09-21T00:06:24.703Z,9.40
2017-09-21T00:08:52.347Z,9.40
2017-09-21T00:11:20.196Z,9.40
2017-09-21T00:13:47.850Z,9.30
2017-09-21T00:16:15.589Z,9.30
2017-09-21T00:18:43.336Z,9.40
2017-09-21T00:21:11.084Z,9.40
2017-09-21T00:23:38.831Z,9.40
2017-09-21T00:26:06.519Z,9.40
2017-09-21T00:28:34.228Z,9.40
2017-09-21T00:31:01.890Z,9.40
2017-09-21T00:33:30.098Z,9.30
2017-09-21T00:35:57.775Z,9.30
2017-09-21T00:38:25.522Z,9.30
2017-09-21T00:40:53.268Z,9.30
2017-09-21T00:43:20.944Z,9.40
2017-09-21T00:45:48.995Z,9.30
2017-09-21T00:48:17.461Z,9.30
2017-09-21T00:50:45.556Z,9.30
2017-09-21T00:53:13.235Z,9.30
2017-09-21T00:55:41.043Z,9.30
2017-09-21T00:58:08.829Z,9.30
2017-09-21T01:00:36.469Z,9.30
2017-09-21T01:03:04.326Z,9.30
2017-09-21T01:05:32.074Z,9.30
2017-09-21T01:07:59.822Z,9.30
2017-09-21T01:10:27.547Z,9.30
2017-09-21T01:12:55.316Z,9.20
2017-09-21T01:15:23.166Z,9.20
2017-09-21T01:17:51.117Z,9.20
2017-09-21T01:20:18.845Z,9.20
2017-09-21T01:22:46.611Z,9.20
2017-09-21T01:25:14.562Z,9.20
2017-09-21T01:27:42.310Z,9.20
2017-09-21T01:30:10.031Z,9.20
2017-09-21T01:32:37.906Z,9.20
2017-09-21T01:35:05.636Z,9.20
2017-09-21T01:37:33.404Z,9.20
2017-09-21T01:40:01.202Z,9.20
2017-09-21T01:42:28.923Z,9.10
2017-09-21T01:44:57.090Z,9.20
2017-09-21T01:47:25.272Z,9.20
2017-09-21T01:49:52.991Z,9.20
2017-09-21T01:52:21.115Z,9.20
2017-09-21T01:54:48.966Z,9.20
2017-09-21T01:57:16.690Z,9.20
2017-09-21T01:59:44.461Z,9.20
2017-09-21T02:02:12.411Z,9.30
2017-09-21T02:04:40.119Z,9.30
2017-09-21T02:07:07.886Z,9.30
2017-09-21T02:09:35.619Z,9.30
2017-09-21T02:12:03.403Z,9.30
2017-09-21T02:14:31.084Z,9.20
2017-09-21T02:16:58.898Z,9.20
2017-09-21T02:19:26.571Z,9.20
2017-09-21T02:21:54.638Z,9.20
2017-09-21T02:24:22.379Z,9.20
2017-09-21T02:26:50.500Z,9.20
2017-09-21T02:29:18.223Z,9.20
2017-09-21T02:31:45.995Z,9.10
2017-09-21T02:34:13.743Z,9.10
2017-09-21T02:36:41.392Z,9.10
2017-09-21T02:39:09.103Z,9.10
2017-09-21T02:41:36.779Z,9.00
2017-09-21T02:44:04.530Z,9.00
2017-09-21T02:46:32.223Z,8.90
2017-09-21T02:48:59.936Z,8.90
2017-09-21T02:51:27.668Z,8.90
2017-09-21T02:53:55.383Z,8.80
2017-09-21T02:56:23.060Z,8.80
2017-09-21T02:58:50.808Z,8.80
2017-09-21T03:01:18.555Z,8.70
2017-09-21T03:03:46.302Z,8.70
2017-09-21T03:06:14.049Z,8.60
2017-09-21T03:08:41.750Z,8.50
2017-09-21T03:11:09.442Z,8.50
2017-09-21T03:13:37.100Z,8.40
2017-09-21T03:16:04.796Z,8.40
2017-09-21T03:18:32.481Z,8.40
2017-09-21T03:21:00.234Z,8.30
2017-09-21T03:23:27.974Z,8.20
2017-09-21T03:25:55.612Z,8.20
2017-09-21T03:28:23.255Z,8.20
2017-09-21T03:30:51.867Z,8.10
2017-09-21T03:33:19.578Z,8.10
2017-09-21T03:35:47.228Z,8.10
2017-09-21T03:38:14.971Z,8.00
2017-09-21T03:40:42.616Z,8.00
2017-09-21T03:43:10.299Z,7.90
2017-09-21T03:45:38.519Z,7.90
2017-09-21T03:48:06.154Z,7.90
2017-09-21T03:50:33.810Z,7.80
2017-09-21T03:53:01.646Z,7.80
2017-09-21T03:55:29.287Z,7.70
2017-09-21T03:57:56.927Z,7.70
2017-09-21T04:00:26.039Z,7.70
2017-09-21T04:02:54.186Z,7.60
2017-09-21T04:05:22.258Z,7.60
2017-09-21T04:07:49.987Z,7.60
2017-09-21T04:10:17.627Z,7.60
2017-09-21T04:12:45.510Z,7.60
2017-09-21T04:15:13.728Z,7.50
2017-09-21T04:17:41.487Z,7.50
2017-09-21T04:20:09.187Z,7.50
2017-09-21T04:22:36.926Z,7.50
2017-09-21T04:25:04.732Z,7.40
2017-09-21T04:27:32.378Z,7.40
2017-09-21T04:30:00.216Z,7.40
2017-09-21T04:32:27.870Z,7.30
2017-09-21T04:34:55.619Z,7.30
2017-09-21T04:37:23.319Z,7.30
2017-09-21T04:39:51.114Z,7.30
2017-09-21T04:42:18.859Z,7.30
2017-09-21T04:44:46.607Z,7.30
2017-09-21T04:47:14.354Z,7.30
2017-09-21T04:49:42.101Z,7.20
2017-09-21T04:52:09.787Z,7.20
2017-09-21T04:54:37.834Z,7.20
2017-09-21T04:57:05.959Z,7.20
2017-09-21T04:59:33.695Z,7.20
2017-09-21T05:02:01.459Z,7.20
2017-09-21T05:04:29.202Z,7.20
2017-09-21T05:06:56.949Z,7.10
2017-09-21T05:09:24.611Z,7.10
2017-09-21T05:11:52.280Z,7.10
2017-09-21T05:14:20.088Z,7.00
2017-09-21T05:16:47.759Z,7.00
2017-09-21T05:19:15.889Z,7.10
2017-09-21T05:21:43.636Z,7.10
2017-09-21T05:24:11.384Z,7.10
2017-09-21T05:26:39.131Z,7.10
2017-09-21T05:29:06.822Z,7.10
2017-09-21T05:31:34.510Z,7.20
2017-09-21T05:34:02.214Z,7.20
2017-09-21T05:36:30.022Z,7.20
2017-09-21T05:38:57.667Z,7.20
2017-09-21T05:41:25.314Z,7.20
2017-09-21T05:43:53.002Z,7.30
2017-09-21T05:46:20.698Z,7.40
2017-09-21T05:48:48.399Z,7.50
2017-09-21T05:51:16.195Z,7.60
2017-09-21T05:53:43.943Z,7.80
2017-09-21T05:56:11.587Z,7.90
2017-09-21T05:58:39.291Z,7.90
2017-09-21T06:01:06.930Z,8.00
2017-09-21T06:03:34.580Z,8.10
2017-09-21T06:06:02.279Z,8.10
2017-09-21T06:08:29.936Z,8.10
2017-09-21T06:10:58.074Z,8.10
2017-09-21T06:13:25.786Z,8.10
2017-09-21T06:15:53.426Z,8.20
2017-09-21T06:18:21.082Z,8.30
2017-09-21T06:20:48.774Z,8.30
2017-09-21T06:23:16.503Z,8.30
2017-09-21T06:25:44.251Z,8.50
2017-09-21T06:28:11.955Z,8.60
2017-09-21T06:30:39.643Z,8.70
2017-09-21T06:33:07.388Z,8.80
2017-09-21T06:35:35.140Z,8.80
2017-09-21T06:38:02.885Z,8.80
2017-09-21T06:40:30.544Z,8.80
2017-09-21T06:42:58.267Z,8.80
2017-09-21T06:45:25.920Z,8.80
2017-09-21T06:47:53.669Z,8.90
2017-09-21T06:50:21.621Z,8.90
2017-09-21T06:52:49.368Z,9.00
2017-09-21T06:55:17.115Z,9.20
2017-09-21T06:57:44.950Z,9.50
2017-09-21T07:00:12.609Z,10.00
2017-09-21T07:02:40.356Z,10.40
2017-09-21T07:05:08.206Z,10.80
2017-09-21T07:07:35.954Z,11.20
2017-09-21T07:10:03.704Z,11.60
2017-09-21T07:12:31.430Z,11.80
2017-09-21T07:14:59.079Z,12.00
2017-09-21T07:17:26.843Z,12.20
2017-09-21T07:19:54.552Z,12.30
2017-09-21T07:22:22.236Z,12.50
2017-09-21T07:24:49.908Z,12.50
2017-09-21T07:27:18.007Z,12.70
2017-09-21T07:29:45.681Z,12.70
2017-09-21T07:32:13.427Z,12.80
2017-09-21T07:34:41.185Z,13.00
2017-09-21T07:37:08.885Z,13.20
2017-09-21T07:39:36.591Z,13.40
2017-09-21T07:42:04.818Z,13.70
2017-09-21T07:44:32.515Z,13.70
2017-09-21T07:47:00.174Z,13.80
2017-09-21T07:49:27.939Z,13.80
2017-09-21T07:51:55.718Z,13.90
2017-09-21T07:54:23.461Z,13.80
2017-09-21T07:56:51.210Z,13.80
2017-09-21T07:59:18.956Z,14.00
2017-09-21T08:01:46.607Z,14.10
2017-09-21T08:04:14.349Z,14.10
2017-09-21T08:06:42.002Z,14.20
2017-09-21T08:09:09.660Z,14.30
2017-09-21T08:11:37.385Z,14.40
2017-09-21T08:14:05.039Z,14.40
2017-09-21T08:16:32.783Z,14.60
2017-09-21T08:19:00.479Z,14.70
2017-09-21T08:21:28.171Z,14.70
2017-09-21T08:23:55.919Z,14.70
2017-09-21T08:26:23.768Z,14.70
2017-09-21T08:28:51.517Z,14.70
2017-09-21T08:31:19.262Z,14.80
2017-09-21T08:33:46.999Z,14.80
2017-09-21T08:36:14.698Z,14.90
2017-09-21T08:38:42.355Z,15.00
2017-09-21T08:41:10.060Z,15.00
2017-09-21T08:43:37.711Z,15.20
2017-09-21T08:46:05.442Z,15.40
2017-09-21T08:48:33.200Z,15.50
2017-09-21T08:51:00.843Z,15.40
2017-09-21T08:53:28.581Z,15.50
2017-09-21T08:55:56.329Z,15.50
2017-09-21T08:58:23.975Z,15.60
2017-09-21T09:00:51.725Z,15.60
2017-09-21T09:03:19.519Z,15.60
2017-09-21T09:05:47.214Z,15.70
2017-09-21T09:08:14.961Z,16.00
2017-09-21T09:10:42.913Z,16.20
2017-09-21T09:13:10.563Z,16.40
2017-09-21T09:15:38.305Z,16.50
2017-09-21T09:18:06.167Z,16.30
2017-09-21T09:20:33.823Z,16.50
2017-09-21T09:23:01.960Z,16.30
2017-09-21T09:25:29.662Z,16.30
2017-09-21T09:27:57.454Z,16.50
2017-09-21T09:30:25.200Z,16.80
2017-09-21T09:32:53.050Z,16.80
2017-09-21T09:35:20.704Z,16.70
2017-09-21T09:37:48.447Z,16.70
2017-09-21T09:40:16.196Z,16.80
2017-09-21T09:42:43.937Z,16.90
2017-09-21T09:45:11.683Z,16.90
2017-09-21T09:47:39.384Z,16.70
2017-09-21T09:50:07.079Z,16.50
2017-09-21T09:52:34.825Z,16.10
2017-09-21T09:55:02.675Z,15.70
2017-09-21T09:57:30.423Z,15.40
2017-09-21T09:59:58.074Z,15.20
2017-09-21T10:02:26.012Z,15.00
2017-09-21T10:04:53.766Z,15.10
2017-09-21T10:07:21.419Z,15.30
2017-09-21T10:09:49.123Z,15.70
2017-09-21T10:12:16.805Z,16.00
2017-09-21T10:14:44.455Z,15.90
2017-09-21T10:17:12.167Z,16.10
2017-09-21T10:19:39.820Z,16.30
2017-09-21T10:22:07.587Z,16.30
2017-09-21T10:24:35.439Z,16.40
2017-09-21T10:27:03.188Z,16.50
2017-09-21T10:29:30.846Z,16.60
2017-09-21T10:31:58.577Z,16.60
2017-09-21T10:34:26.324Z,16.50
2017-09-21T10:36:54.074Z,16.40
2017-09-21T10:39:21.924Z,16.30
2017-09-21T10:41:49.669Z,16.20
2017-09-21T10:44:17.416Z,16.00
2017-09-21T10:46:45.164Z,15.60
2017-09-21T10:49:12.910Z,15.50
2017-09-21T10:51:40.658Z,15.80
2017-09-21T10:54:08.405Z,15.90
2017-09-21T10:56:36.135Z,15.70
2017-09-21T10:59:04.604Z,15.50
2017-09-21T11:01:32.522Z,15.40
2017-09-21T11:04:00.317Z,14.90
2017-09-21T11:06:28.065Z,14.80
2017-09-21T11:08:55.878Z,14.70
2017-09-21T11:11:23.558Z,14.60
2017-09-21T11:13:51.307Z,14.60
2017-09-21T11:16:19.155Z,14.90
2017-09-21T11:18:46.903Z,15.40
2017-09-21T11:21:14.650Z,15.80
2017-09-21T11:23:42.351Z,16.30
2017-09-21T11:26:10.143Z,16.60
2017-09-21T11:28:37.897Z,16.60
2017-09-21T11:31:05.642Z,16.80
2017-09-21T11:33:33.343Z,17.10
2017-09-21T11:36:01.034Z,17.40
2017-09-21T11:38:28.734Z,17.80
2017-09-21T11:40:56.393Z,17.80
2017-09-21T11:43:24.047Z,17.90
2017-09-21T11:45:51.920Z,18.10
2017-09-21T11:48:19.667Z,18.40
2017-09-21T11:50:47.413Z,18.70
2017-09-21T11:53:15.266Z,18.80
2017-09-21T11:55:43.011Z,18.70
2017-09-21T11:58:10.706Z,18.70
2017-09-21T12:00:38.505Z,18.40
2017-09-21T12:03:06.168Z,18.00
2017-09-21T12:05:33.900Z,17.30
2017-09-21T12:08:01.615Z,16.80
2017-09-21T12:10:29.263Z,16.50
2017-09-21T12:12:56.916Z,16.40
2017-09-21T12:15:24.622Z,16.10
2017-09-21T12:17:52.739Z,15.80
2017-09-21T12:20:20.489Z,15.80
2017-09-21T12:22:48.232Z,15.70
2017-09-21T12:25:15.884Z,15.60
2017-09-21T12:27:43.626Z,15.60
2017-09-21T12:30:11.472Z,15.60
2017-09-21T12:32:39.221Z,15.70
2017-09-21T12:35:06.968Z,16.20
2017-09-21T12:37:34.719Z,16.70
2017-09-21T12:40:02.466Z,17.00
2017-09-21T12:42:30.120Z,17.20
2017-09-21T12:44:57.960Z,17.60
2017-09-21T12:47:25.620Z,17.80
2017-09-21T12:49:53.352Z,17.60
2017-09-21T12:52:21.100Z,17.40
2017-09-21T12:54:48.760Z,17.20
2017-09-21T12:57:16.490Z,17.00
2017-09-21T12:59:44.238Z,17.00
2017-09-21T13:02:11.986Z,17.40
2017-09-21T13:04:39.631Z,17.80
2017-09-21T13:07:07.335Z,18.10
2017-09-21T13:09:34.971Z,18.40
2017-09-21T13:12:02.670Z,18.20
2017-09-21T13:14:30.416Z,18.20
2017-09-21T13:16:58.068Z,18.30
2017-09-21T13:19:25.809Z,18.30
2017-09-21T13:21:53.555Z,18.50
2017-09-21T13:24:21.254Z,18.40
2017-09-21T13:26:49.050Z,18.70
2017-09-21T13:29:16.901Z,18.80
2017-09-21T13:31:44.547Z,19.00
2017-09-21T13:34:12.292Z,19.10
2017-09-21T13:36:40.039Z,19.30
2017-09-21T13:39:07.786Z,18.90
2017-09-21T13:41:35.536Z,18.60
2017-09-21T13:44:03.282Z,18.40
2017-09-21T13:46:30.952Z,18.30
2017-09-21T13:48:59.084Z,17.40
2017-09-21T13:51:26.804Z,17.40
2017-09-21T13:53:54.580Z,17.10
2017-09-21T13:56:22.231Z,16.80
2017-09-21T13:58:49.959Z,16.40
2017-09-21T14:01:17.635Z,16.30
2017-09-21T14:03:45.363Z,16.10
2017-09-21T14:06:13.063Z,16.20
2017-09-21T14:08:40.757Z,16.50
2017-09-21T14:11:08.828Z,17.30
2017-09-21T14:13:36.657Z,17.40
2017-09-21T14:16:04.410Z,17.80
2017-09-21T14:18:32.107Z,18.20
2017-09-21T14:20:59.904Z,18.30
2017-09-21T14:23:27.651Z,18.50
2017-09-21T14:25:55.397Z,18.60
2017-09-21T14:28:23.144Z,18.30
2017-09-21T14:30:50.892Z,18.20
2017-09-21T14:35:52.633Z,18.30
2017-09-21T14:38:20.322Z,18.30
2017-09-21T14:40:48.132Z,18.20
2017-09-21T14:43:16.078Z,18.10
2017-09-21T14:45:43.783Z,18.20
2017-09-21T14:48:11.572Z,18.20
2017-09-21T14:50:39.422Z,18.50
2017-09-21T14:53:07.115Z,18.50
2017-09-21T14:55:34.771Z,18.50
2017-09-21T14:58:02.564Z,18.60
2017-09-21T15:00:30.311Z,18.70
2017-09-21T15:02:57.968Z,18.60
2017-09-21T15:05:25.696Z,18.60
2017-09-21T15:07:53.348Z,18.60
2017-09-21T15:10:20.999Z,18.50
2017-09-21T15:12:48.699Z,18.30
2017-09-21T15:15:16.340Z,18.00
2017-09-21T15:17:44.029Z,17.50
2017-09-21T15:20:11.874Z,17.20
2017-09-21T15:22:39.527Z,16.90
2017-09-21T15:25:07.183Z,16.50
2017-09-21T15:27:35.021Z,16.40
2017-09-21T15:30:02.772Z,16.10
2017-09-21T15:32:30.443Z,16.10
2017-09-21T15:34:58.673Z,16.20
2017-09-21T15:37:26.420Z,16.20
2017-09-21T15:39:54.167Z,16.30
2017-09-21T15:42:21.914Z,16.40
2017-09-21T15:44:49.871Z,16.50
2017-09-21T15:47:17.613Z,16.40
2017-09-21T15:49:45.319Z,16.40
2017-09-21T15:52:13.006Z,16.40
2017-09-21T15:54:40.753Z,16.30
2017-09-21T15:57:08.910Z,16.20
2017-09-21T15:59:36.555Z,16.10
2017-09-21T16:02:04.207Z,15.90
2017-09-21T16:04:31.954Z,15.90
2017-09-21T16:06:59.695Z,15.80
2017-09-21T16:09:27.443Z,15.70
2017-09-21T16:11:55.394Z,15.60
2017-09-21T16:14:23.143Z,15.50
2017-09-21T16:16:50.795Z,15.40
2017-09-21T16:19:18.738Z,15.30
2017-09-21T16:21:46.396Z,15.20
2017-09-21T16:24:14.039Z,15.10
2017-09-21T16:26:41.981Z,15.00
2017-09-21T16:29:09.631Z,14.90
2017-09-21T16:31:37.372Z,14.90
2017-09-21T16:34:05.128Z,14.80
2017-09-21T16:36:32.865Z,14.70
2017-09-21T16:39:00.617Z,14.60
2017-09-21T16:41:28.400Z,14.50
2017-09-21T16:43:56.623Z,14.30
2017-09-21T16:46:24.311Z,14.30
2017-09-21T16:48:52.039Z,14.30
2017-09-21T16:51:19.690Z,14.20
2017-09-21T16:53:47.769Z,14.00
2017-09-21T16:56:15.669Z,14.00
2017-09-21T16:58:43.416Z,14.00
2017-09-21T17:01:11.119Z,13.80
2017-09-21T17:03:38.883Z,13.70
2017-09-21T17:06:06.654Z,13.70
2017-09-21T17:08:34.348Z,13.60
2017-09-21T17:11:02.152Z,13.50
2017-09-21T17:13:29.796Z,13.40
2017-09-21T17:15:57.508Z,13.40
2017-09-21T17:18:25.292Z,13.30
2017-09-21T17:20:52.944Z,13.20
2017-09-21T17:23:20.684Z,13.20
2017-09-21T17:25:48.399Z,13.10
2017-09-21T17:28:16.074Z,13.00
2017-09-21T17:30:43.822Z,12.90
2017-09-21T17:33:11.570Z,12.80
2017-09-21T17:35:39.316Z,12.70
2017-09-21T17:38:07.066Z,12.60
2017-09-21T17:40:34.862Z,12.60
2017-09-21T17:43:02.568Z,12.50
2017-09-21T17:45:30.631Z,12.30
2017-09-21T17:47:58.327Z,12.30
2017-09-21T17:50:25.983Z,12.30
2017-09-21T17:52:53.755Z,12.30
2017-09-21T17:55:21.480Z,12.30
2017-09-21T17:57:49.146Z,12.20
2017-09-21T18:00:16.810Z,12.30
2017-09-21T18:02:45.869Z,12.20
2017-09-21T18:05:14.014Z,12.20
2017-09-21T18:07:42.183Z,12.00
2017-09-21T18:10:09.896Z,12.00
2017-09-21T18:12:37.535Z,11.90
2017-09-21T18:15:05.325Z,11.80
2017-09-21T18:17:33.035Z,11.70
2017-09-21T18:20:00.818Z,11.70
2017-09-21T18:22:28.473Z,11.60
2017-09-21T18:24:56.191Z,11.60
2017-09-21T18:27:23.874Z,11.60
2017-09-21T18:29:51.603Z,11.50
2017-09-21T18:32:19.453Z,11.40
2017-09-21T18:34:47.203Z,11.40
2017-09-21T18:37:14.956Z,11.40
2017-09-21T18:39:42.797Z,11.40
2017-09-21T18:42:10.483Z,11.30
2017-09-21T18:44:38.171Z,11.30
2017-09-21T18:47:05.896Z,11.20
2017-09-21T18:49:33.686Z,11.00
2017-09-21T18:52:01.339Z,11.00
2017-09-21T18:54:29.179Z,11.10
2017-09-21T18:56:56.927Z,11.20
2017-09-21T18:59:24.674Z,11.20
2017-09-21T19:01:52.421Z,11.20
2017-09-21T19:04:20.076Z,11.20
2017-09-21T19:06:47.814Z,11.20
2017-09-21T19:09:15.646Z,11.20
2017-09-21T19:11:43.410Z,11.20
2017-09-21T19:14:11.060Z,11.10
2017-09-21T19:16:38.767Z,11.00
2017-09-21T19:19:06.422Z,11.00
2017-09-21T19:21:34.074Z,11.00
2017-09-21T19:24:02.763Z,11.00
2017-09-21T19:26:30.443Z,11.00
2017-09-21T19:28:59.487Z,10.90
2017-09-21T19:31:27.198Z,10.90
2017-09-21T19:33:54.905Z,10.80
2017-09-21T19:36:22.977Z,10.70
2017-09-21T19:38:50.883Z,10.70
2017-09-21T19:41:19.471Z,10.70
2017-09-21T19:43:47.528Z,10.70
2017-09-21T19:46:15.249Z,10.70
2017-09-21T19:48:42.998Z,10.70
2017-09-21T19:51:10.746Z,10.70
2017-09-21T19:53:38.595Z,10.70
2017-09-21T19:56:06.307Z,10.70
2017-09-21T19:58:34.053Z,10.70
2017-09-21T20:01:03.542Z,10.60
2017-09-21T20:03:31.328Z,10.60
2017-09-21T20:05:59.039Z,10.60
2017-09-21T20:08:26.775Z,10.60
2017-09-21T20:10:54.656Z,10.60
2017-09-21T20:13:22.828Z,10.50
2017-09-21T20:15:50.590Z,10.50
2017-09-21T20:18:18.303Z,10.50
2017-09-21T20:20:45.967Z,10.50
2017-09-21T20:23:14.021Z,10.40
2017-09-21T20:25:41.970Z,10.40
2017-09-21T20:28:11.218Z,10.40
2017-09-21T20:30:39.413Z,10.40
2017-09-21T20:33:07.455Z,10.20
2017-09-21T20:35:35.424Z,10.10
2017-09-21T20:38:04.686Z,10.10
2017-09-21T20:40:32.565Z,10.10
2017-09-21T20:43:00.945Z,10.00
2017-09-21T20:45:28.978Z,10.00
2017-09-21T20:47:57.342Z,10.00
2017-09-21T20:50:25.305Z,10.00
2017-09-21T20:52:53.851Z,10.00
2017-09-21T20:55:21.518Z,10.00
2017-09-21T20:57:49.572Z,10.00
2017-09-21T21:00:17.670Z,10.00
2017-09-21T21:02:45.334Z,10.00
2017-09-21T21:05:12.992Z,10.00
2017-09-21T21:07:40.706Z,9.90
2017-09-21T21:10:08.352Z,9.80
2017-09-21T21:12:35.995Z,9.60
2017-09-21T21:15:03.784Z,9.60
2017-09-21T21:17:31.530Z,9.60
2017-09-21T21:19:59.277Z,9.60
2017-09-21T21:22:27.030Z,9.70
2017-09-21T21:24:54.772Z,9.70
2017-09-21T21:27:22.519Z,9.70
2017-09-21T21:29:50.227Z,9.70
2017-09-21T21:32:17.911Z,9.70
2017-09-21T21:34:45.561Z,9.70
2017-09-21T21:37:13.407Z,9.70
2017-09-21T21:39:41.099Z,9.70
2017-09-21T21:42:08.750Z,9.70
2017-09-21T21:44:36.463Z,9.70
2017-09-21T21:47:04.601Z,9.80
2017-09-21T21:49:32.255Z,9.80
2017-09-21T21:52:00.183Z,9.80
2017-09-21T21:54:27.839Z,9.70
2017-09-21T21:56:55.510Z,9.70
2017-09-21T21:59:23.606Z,9.50
2017-09-21T22:01:51.254Z,9.50
2017-09-21T22:04:19.035Z,9.50
2017-09-21T22:06:46.760Z,9.50
2017-09-21T22:09:14.421Z,9.50
2017-09-21T22:11:42.078Z,9.50
2017-09-21T22:14:09.922Z,9.50
2017-09-21T22:16:37.670Z,9.40
2017-09-21T22:19:05.420Z,9.30
2017-09-21T22:21:33.163Z,9.10
2017-09-21T22:24:00.914Z,9.10
2017-09-21T22:26:28.566Z,9.00
2017-09-21T22:28:56.337Z,9.00
2017-09-21T22:31:24.384Z,8.80
2017-09-21T22:33:52.436Z,8.80
2017-09-21T22:36:20.673Z,8.80
2017-09-21T22:38:48.429Z,8.80
2017-09-21T22:41:16.167Z,8.70
2017-09-21T22:43:43.960Z,8.70
2017-09-21T22:46:11.615Z,8.70
2017-09-21T22:48:39.267Z,8.70
2017-09-21T22:51:07.054Z,8.70
2017-09-21T22:53:34.703Z,8.80
2017-09-21T22:56:02.449Z,9.00
2017-09-21T22:58:30.153Z,9.00
2017-09-21T23:00:57.799Z,8.90
2017-09-21T23:03:25.438Z,8.80
2017-09-21T23:05:53.158Z,8.80
2017-09-21T23:08:21.207Z,8.50
2017-09-21T23:10:49.255Z,8.40
2017-09-21T23:13:16.987Z,8.40
2017-09-21T23:15:44.733Z,8.50
2017-09-21T23:18:12.481Z,8.60
2017-09-21T23:20:40.330Z,8.60
2017-09-21T23:23:08.077Z,8.50
2017-09-21T23:25:35.743Z,8.40
2017-09-21T23:28:03.983Z,8.50
2017-09-21T23:30:31.731Z,8.50
2017-09-21T23:32:59.478Z,8.50
2017-09-21T23:35:27.182Z,8.50
2017-09-21T23:37:54.891Z,8.40
2017-09-21T23:40:22.926Z,8.50
2017-09-21T23:42:50.672Z,8.50
2017-09-21T23:45:18.316Z,8.50
2017-09-21T23:47:45.966Z,8.40
2017-09-21T23:50:13.709Z,8.40
2017-09-21T23:52:41.355Z,8.40
2017-09-21T23:55:09.100Z,8.40
2017-09-21T23:57:36.810Z,8.30
